createdAt,value
2017-09-14T00:00:51.752Z,993.36
2017-09-14T00:01:51.720Z,993.49
2017-09-14T00:02:51.689Z,993.54
2017-09-14T00:03:51.657Z,993.47
2017-09-14T00:04:51.627Z,993.49
2017-09-14T00:05:51.596Z,993.56
2017-09-14T00:06:51.561Z,993.48
2017-09-14T00:07:51.532Z,993.40
2017-09-14T00:08:51.497Z,993.25
2017-09-14T00:09:51.468Z,993.47
2017-09-14T00:10:51.434Z,993.39
2017-09-14T00:11:51.403Z,993.47
2017-09-14T00:12:51.371Z,993.40
2017-09-14T00:13:51.341Z,993.46
2017-09-14T00:14:51.309Z,993.47
2017-09-14T00:15:51.277Z,993.44
2017-09-14T00:16:51.247Z,993.46
2017-09-14T00:17:51.214Z,993.41
2017-09-14T00:18:51.181Z,993.36
2017-09-14T00:19:51.150Z,993.36
2017-09-14T00:20:51.866Z,993.33
2017-09-14T00:21:51.086Z,993.28
2017-09-14T00:22:51.054Z,993.32
2017-09-14T00:23:51.021Z,993.17
2017-09-14T00:24:50.991Z,993.20
2017-09-14T00:25:50.966Z,993.25
2017-09-14T00:26:50.928Z,993.22
2017-09-14T00:27:50.896Z,993.18
2017-09-14T00:28:50.864Z,993.18
2017-09-14T00:29:50.832Z,993.21
2017-09-14T00:30:50.801Z,993.23
2017-09-14T00:31:50.770Z,993.24
2017-09-14T00:32:50.737Z,993.14
2017-09-14T00:33:50.706Z,993.22
2017-09-14T00:34:50.673Z,993.23
2017-09-14T00:35:50.644Z,993.21
2017-09-14T00:36:50.609Z,993.17
2017-09-14T00:37:50.578Z,993.17
2017-09-14T00:38:50.552Z,993.22
2017-09-14T00:39:50.513Z,993.21
2017-09-14T00:40:50.481Z,993.15
2017-09-14T00:41:50.451Z,993.25
2017-09-14T00:42:50.415Z,993.22
2017-09-14T00:43:50.387Z,993.19
2017-09-14T00:44:50.353Z,993.17
2017-09-14T00:45:50.323Z,993.18
2017-09-14T00:46:50.291Z,993.16
2017-09-14T00:47:50.257Z,993.19
2017-09-14T00:48:50.228Z,993.15
2017-09-14T00:49:50.197Z,993.16
2017-09-14T00:50:50.164Z,993.11
2017-09-14T00:51:50.131Z,993.11
2017-09-14T00:52:50.098Z,993.07
2017-09-14T00:53:50.069Z,993.10
2017-09-14T00:54:50.035Z,993.01
2017-09-14T00:55:50.004Z,993.04
2017-09-14T00:56:49.980Z,992.99
2017-09-14T00:57:49.947Z,993.02
2017-09-14T00:58:49.907Z,993.00
2017-09-14T00:59:49.876Z,992.93
2017-09-14T01:00:49.847Z,992.98
2017-09-14T01:01:49.812Z,992.97
2017-09-14T01:02:49.782Z,992.89
2017-09-14T01:03:49.748Z,992.87
2017-09-14T01:04:49.718Z,992.86
2017-09-14T01:05:49.685Z,992.92
2017-09-14T01:06:49.654Z,992.95
2017-09-14T01:07:49.623Z,992.87
2017-09-14T01:08:49.590Z,992.97
2017-09-14T01:09:49.559Z,992.92
2017-09-14T01:10:49.529Z,992.91
2017-09-14T01:11:49.495Z,992.89
2017-09-14T01:12:49.463Z,992.89
2017-09-14T01:13:49.431Z,992.83
2017-09-14T01:14:49.398Z,992.85
2017-09-14T01:15:49.366Z,992.85
2017-09-14T01:16:49.335Z,992.95
2017-09-14T01:17:49.304Z,992.99
2017-09-14T01:18:49.270Z,993.05
2017-09-14T01:19:49.239Z,993.02
2017-09-14T01:20:49.208Z,993.07
2017-09-14T01:21:49.176Z,993.11
2017-09-14T01:22:49.143Z,993.16
2017-09-14T01:23:49.105Z,993.13
2017-09-14T01:24:49.081Z,993.09
2017-09-14T01:25:49.051Z,993.14
2017-09-14T01:26:49.044Z,993.15
2017-09-14T01:27:48.987Z,993.13
2017-09-14T01:28:48.953Z,993.08
2017-09-14T01:29:48.922Z,993.13
2017-09-14T01:30:48.899Z,993.18
2017-09-14T01:31:48.855Z,993.14
2017-09-14T01:32:48.826Z,993.14
2017-09-14T01:33:48.794Z,993.17
2017-09-14T01:34:48.769Z,993.21
2017-09-14T01:35:48.729Z,993.28
2017-09-14T01:36:48.696Z,993.25
2017-09-14T01:37:48.664Z,993.24
2017-09-14T01:38:48.632Z,993.28
2017-09-14T01:39:48.601Z,993.29
2017-09-14T01:40:48.569Z,993.31
2017-09-14T01:41:48.538Z,993.25
2017-09-14T01:42:48.506Z,993.28
2017-09-14T01:43:48.491Z,993.25
2017-09-14T01:44:48.441Z,993.32
2017-09-14T01:45:48.410Z,993.32
2017-09-14T01:46:48.381Z,993.27
2017-09-14T01:47:48.346Z,993.26
2017-09-14T01:48:48.313Z,993.25
2017-09-14T01:49:48.282Z,993.28
2017-09-14T01:50:48.249Z,993.24
2017-09-14T01:51:48.218Z,993.23
2017-09-14T01:52:48.191Z,993.17
2017-09-14T01:53:48.153Z,993.20
2017-09-14T01:54:48.121Z,993.18
2017-09-14T01:55:48.090Z,993.11
2017-09-14T01:56:48.059Z,993.09
2017-09-14T01:57:48.025Z,993.10
2017-09-14T01:58:47.997Z,993.10
2017-09-14T01:59:47.962Z,993.08
2017-09-14T02:00:47.930Z,992.97
2017-09-14T02:01:47.901Z,993.06
2017-09-14T02:02:47.867Z,992.99
2017-09-14T02:03:47.832Z,992.96
2017-09-14T02:04:47.802Z,992.95
2017-09-14T02:05:47.768Z,992.85
2017-09-14T02:06:47.738Z,992.81
2017-09-14T02:07:47.706Z,992.90
2017-09-14T02:08:48.040Z,992.88
2017-09-14T02:09:47.641Z,992.87
2017-09-14T02:10:47.609Z,992.84
2017-09-14T02:11:47.580Z,992.86
2017-09-14T02:12:47.546Z,992.85
2017-09-14T02:13:47.514Z,992.87
2017-09-14T02:14:47.481Z,992.89
2017-09-14T02:15:47.450Z,992.86
2017-09-14T02:16:47.417Z,992.84
2017-09-14T02:17:47.386Z,992.79
2017-09-14T02:18:47.351Z,992.77
2017-09-14T02:19:47.338Z,992.77
2017-09-14T02:20:47.289Z,992.81
2017-09-14T02:21:47.340Z,992.76
2017-09-14T02:22:47.225Z,992.82
2017-09-14T02:23:47.197Z,992.87
2017-09-14T02:24:47.162Z,992.85
2017-09-14T02:25:47.128Z,992.81
2017-09-14T02:26:47.097Z,992.82
2017-09-14T02:27:47.064Z,992.81
2017-09-14T02:28:47.034Z,992.82
2017-09-14T02:29:47.001Z,992.83
2017-09-14T02:30:46.968Z,992.84
2017-09-14T02:31:46.936Z,992.84
2017-09-14T02:32:46.905Z,992.77
2017-09-14T02:33:46.874Z,992.79
2017-09-14T02:34:46.839Z,992.78
2017-09-14T02:35:46.807Z,992.77
2017-09-14T02:36:46.777Z,992.75
2017-09-14T02:37:46.746Z,992.70
2017-09-14T02:38:46.713Z,992.72
2017-09-14T02:39:46.681Z,992.64
2017-09-14T02:40:46.649Z,992.63
2017-09-14T02:41:46.619Z,992.67
2017-09-14T02:42:46.585Z,992.67
2017-09-14T02:43:46.554Z,992.62
2017-09-14T02:44:46.521Z,992.63
2017-09-14T02:45:46.490Z,992.62
2017-09-14T02:46:47.203Z,992.66
2017-09-14T02:47:46.426Z,992.65
2017-09-14T02:48:46.394Z,992.62
2017-09-14T02:49:46.365Z,992.64
2017-09-14T02:50:46.349Z,992.69
2017-09-14T02:51:46.300Z,992.64
2017-09-14T02:52:46.264Z,992.68
2017-09-14T02:53:46.235Z,992.62
2017-09-14T02:54:46.502Z,992.67
2017-09-14T02:55:46.170Z,992.69
2017-09-14T02:56:46.145Z,992.63
2017-09-14T02:57:46.106Z,992.66
2017-09-14T02:58:46.073Z,992.64
2017-09-14T02:59:46.043Z,992.62
2017-09-14T03:00:46.515Z,992.62
2017-09-14T03:01:46.278Z,992.60
2017-09-14T03:02:45.941Z,992.48
2017-09-14T03:03:46.798Z,992.57
2017-09-14T03:04:45.883Z,992.58
2017-09-14T03:05:45.850Z,992.55
2017-09-14T03:06:45.821Z,992.63
2017-09-14T03:07:45.788Z,992.60
2017-09-14T03:08:45.756Z,992.58
2017-09-14T03:09:45.724Z,992.59
2017-09-14T03:10:45.693Z,992.65
2017-09-14T03:11:45.661Z,992.65
2017-09-14T03:12:45.629Z,992.68
2017-09-14T03:13:45.596Z,992.69
2017-09-14T03:14:45.564Z,992.68
2017-09-14T03:15:45.534Z,992.68
2017-09-14T03:16:45.786Z,992.75
2017-09-14T03:17:46.089Z,992.68
2017-09-14T03:18:45.436Z,992.68
2017-09-14T03:19:45.405Z,992.68
2017-09-14T03:20:45.372Z,992.73
2017-09-14T03:21:45.344Z,992.70
2017-09-14T03:22:45.307Z,992.73
2017-09-14T03:23:45.277Z,992.67
2017-09-14T03:24:45.245Z,992.67
2017-09-14T03:25:45.215Z,992.61
2017-09-14T03:26:45.181Z,992.67
2017-09-14T03:27:45.151Z,992.62
2017-09-14T03:28:45.119Z,992.62
2017-09-14T03:29:45.087Z,992.61
2017-09-14T03:30:45.054Z,992.59
2017-09-14T03:31:45.020Z,992.67
2017-09-14T03:32:44.991Z,992.66
2017-09-14T03:33:44.958Z,992.60
2017-09-14T03:34:44.925Z,992.48
2017-09-14T03:35:44.893Z,992.64
2017-09-14T03:36:44.867Z,992.63
2017-09-14T03:37:44.831Z,992.61
2017-09-14T03:38:44.798Z,992.63
2017-09-14T03:39:44.765Z,992.55
2017-09-14T03:40:44.732Z,992.65
2017-09-14T03:41:44.703Z,992.57
2017-09-14T03:42:44.676Z,992.59
2017-09-14T03:43:44.644Z,992.49
2017-09-14T03:44:44.606Z,992.44
2017-09-14T03:45:44.574Z,992.52
2017-09-14T03:46:44.541Z,992.51
2017-09-14T03:47:44.712Z,992.45
2017-09-14T03:48:44.478Z,992.42
2017-09-14T03:49:44.446Z,992.44
2017-09-14T03:50:44.446Z,992.37
2017-09-14T03:51:44.381Z,992.41
2017-09-14T03:52:44.349Z,992.35
2017-09-14T03:53:44.319Z,992.27
2017-09-14T03:54:44.286Z,992.33
2017-09-14T03:55:44.253Z,992.24
2017-09-14T03:56:44.225Z,992.28
2017-09-14T03:57:44.190Z,992.19
2017-09-14T03:58:44.156Z,992.26
2017-09-14T03:59:44.124Z,992.23
2017-09-14T04:00:44.097Z,992.20
2017-09-14T04:01:44.061Z,992.21
2017-09-14T04:02:44.029Z,992.19
2017-09-14T04:03:43.997Z,992.19
2017-09-14T04:04:43.966Z,992.15
2017-09-14T04:05:43.933Z,992.14
2017-09-14T04:06:43.901Z,992.14
2017-09-14T04:07:43.869Z,992.19
2017-09-14T04:08:43.838Z,992.13
2017-09-14T04:09:43.805Z,992.05
2017-09-14T04:10:43.773Z,992.09
2017-09-14T04:11:43.744Z,992.20
2017-09-14T04:12:43.710Z,992.13
2017-09-14T04:13:43.679Z,992.19
2017-09-14T04:14:43.646Z,992.11
2017-09-14T04:15:44.101Z,992.14
2017-09-14T04:16:43.584Z,992.08
2017-09-14T04:17:43.551Z,992.19
2017-09-14T04:18:43.518Z,992.13
2017-09-14T04:19:43.486Z,992.19
2017-09-14T04:20:43.455Z,992.23
2017-09-14T04:21:43.423Z,992.27
2017-09-14T04:22:43.391Z,992.20
2017-09-14T04:23:43.359Z,992.22
2017-09-14T04:24:43.327Z,992.24
2017-09-14T04:25:43.294Z,992.21
2017-09-14T04:26:43.263Z,992.10
2017-09-14T04:27:43.231Z,992.11
2017-09-14T04:28:43.200Z,992.14
2017-09-14T04:29:43.174Z,992.16
2017-09-14T04:30:43.134Z,992.22
2017-09-14T04:31:43.105Z,992.25
2017-09-14T04:32:43.074Z,992.26
2017-09-14T04:33:43.038Z,992.24
2017-09-14T04:34:43.007Z,992.27
2017-09-14T04:35:42.974Z,992.26
2017-09-14T04:36:42.942Z,992.22
2017-09-14T04:37:42.910Z,992.22
2017-09-14T04:38:42.878Z,992.21
2017-09-14T04:39:42.851Z,992.17
2017-09-14T04:40:42.814Z,992.11
2017-09-14T04:41:42.783Z,992.10
2017-09-14T04:42:42.749Z,992.11
2017-09-14T04:43:42.719Z,992.13
2017-09-14T04:44:42.686Z,992.06
2017-09-14T04:45:42.653Z,992.12
2017-09-14T04:46:42.621Z,992.15
2017-09-14T04:47:42.589Z,992.15
2017-09-14T04:48:42.558Z,992.09
2017-09-14T04:49:42.524Z,992.10
2017-09-14T04:50:42.492Z,992.03
2017-09-14T04:51:42.459Z,992.05
2017-09-14T04:52:42.429Z,991.90
2017-09-14T04:53:42.396Z,991.95
2017-09-14T04:54:42.366Z,991.83
2017-09-14T04:55:42.331Z,991.80
2017-09-14T04:56:42.300Z,991.69
2017-09-14T04:57:42.271Z,991.62
2017-09-14T04:58:42.236Z,991.65
2017-09-14T04:59:42.204Z,991.63
2017-09-14T05:00:42.170Z,991.53
2017-09-14T05:01:42.138Z,991.58
2017-09-14T05:02:42.107Z,991.47
2017-09-14T05:03:42.081Z,991.53
2017-09-14T05:04:42.041Z,991.46
2017-09-14T05:05:42.009Z,991.55
2017-09-14T05:06:41.977Z,991.70
2017-09-14T05:07:41.943Z,991.75
2017-09-14T05:08:41.912Z,991.85
2017-09-14T05:09:41.880Z,991.90
2017-09-14T05:10:41.845Z,991.90
2017-09-14T05:11:41.815Z,991.80
2017-09-14T05:12:41.784Z,991.94
2017-09-14T05:13:41.750Z,991.91
2017-09-14T05:14:41.719Z,991.93
2017-09-14T05:15:41.688Z,991.93
2017-09-14T05:16:41.655Z,991.99
2017-09-14T05:17:41.622Z,991.94
2017-09-14T05:18:41.588Z,991.99
2017-09-14T05:19:41.556Z,991.86
2017-09-14T05:20:41.740Z,991.97
2017-09-14T05:21:41.493Z,991.83
2017-09-14T05:22:41.460Z,991.91
2017-09-14T05:23:41.427Z,991.91
2017-09-14T05:24:41.396Z,991.95
2017-09-14T05:25:41.364Z,992.08
2017-09-14T05:26:41.330Z,992.05
2017-09-14T05:27:41.298Z,992.13
2017-09-14T05:28:41.263Z,992.14
2017-09-14T05:29:41.234Z,992.09
2017-09-14T05:30:41.200Z,992.07
2017-09-14T05:31:41.170Z,992.10
2017-09-14T05:32:41.135Z,992.06
2017-09-14T05:33:41.104Z,992.11
2017-09-14T05:34:41.072Z,992.09
2017-09-14T05:35:41.038Z,992.17
2017-09-14T05:36:41.006Z,992.24
2017-09-14T05:37:40.973Z,992.25
2017-09-14T05:38:40.942Z,992.26
2017-09-14T05:39:40.911Z,992.22
2017-09-14T05:40:40.877Z,992.19
2017-09-14T05:41:40.844Z,992.19
2017-09-14T05:42:40.813Z,992.24
2017-09-14T05:43:40.780Z,992.24
2017-09-14T05:44:40.749Z,992.19
2017-09-14T05:45:40.716Z,992.22
2017-09-14T05:46:40.678Z,992.17
2017-09-14T05:47:40.654Z,992.25
2017-09-14T05:48:40.619Z,992.22
2017-09-14T05:49:40.588Z,992.14
2017-09-14T05:50:40.554Z,992.12
2017-09-14T05:51:40.523Z,992.02
2017-09-14T05:52:40.537Z,992.05
2017-09-14T05:53:40.462Z,992.00
2017-09-14T05:54:40.425Z,991.95
2017-09-14T05:55:40.468Z,991.84
2017-09-14T05:56:40.361Z,991.84
2017-09-14T05:57:40.335Z,991.87
2017-09-14T05:58:40.300Z,991.97
2017-09-14T05:59:40.266Z,991.95
2017-09-14T06:00:40.233Z,992.04
2017-09-14T06:01:40.466Z,991.99
2017-09-14T06:02:40.167Z,992.13
2017-09-14T06:03:40.135Z,992.24
2017-09-14T06:04:40.103Z,992.37
2017-09-14T06:05:40.071Z,992.34
2017-09-14T06:06:40.040Z,992.39
2017-09-14T06:07:40.006Z,992.35
2017-09-14T06:08:39.975Z,992.31
2017-09-14T06:09:39.942Z,992.10
2017-09-14T06:10:39.901Z,991.92
2017-09-14T06:11:39.875Z,991.74
2017-09-14T06:12:39.840Z,991.78
2017-09-14T06:13:39.813Z,991.77
2017-09-14T06:14:39.775Z,992.02
2017-09-14T06:15:39.745Z,992.07
2017-09-14T06:16:39.714Z,992.21
2017-09-14T06:17:39.681Z,992.36
2017-09-14T06:18:39.648Z,992.37
2017-09-14T06:19:39.614Z,992.42
2017-09-14T06:20:40.270Z,992.57
2017-09-14T06:21:39.550Z,992.62
2017-09-14T06:22:39.516Z,992.52
2017-09-14T06:23:39.484Z,992.49
2017-09-14T06:24:39.452Z,992.45
2017-09-14T06:25:39.419Z,992.28
2017-09-14T06:26:39.388Z,992.27
2017-09-14T06:27:39.357Z,992.36
2017-09-14T06:28:39.320Z,992.42
2017-09-14T06:29:39.290Z,992.54
2017-09-14T06:30:39.255Z,992.50
2017-09-14T06:31:39.226Z,992.54
2017-09-14T06:32:39.192Z,992.59
2017-09-14T06:33:39.160Z,992.56
2017-09-14T06:34:39.127Z,992.46
2017-09-14T06:35:39.094Z,992.48
2017-09-14T06:36:39.061Z,992.21
2017-09-14T06:37:39.030Z,992.04
2017-09-14T06:38:38.997Z,992.08
2017-09-14T06:39:38.965Z,991.96
2017-09-14T06:40:38.932Z,992.08
2017-09-14T06:41:38.899Z,992.09
2017-09-14T06:42:38.865Z,992.10
2017-09-14T06:43:38.834Z,992.10
2017-09-14T06:44:38.808Z,992.14
2017-09-14T06:45:38.772Z,992.16
2017-09-14T06:46:38.780Z,992.12
2017-09-14T06:47:38.704Z,992.15
2017-09-14T06:48:38.673Z,992.09
2017-09-14T06:49:38.641Z,992.06
2017-09-14T06:50:38.871Z,992.09
2017-09-14T06:51:38.575Z,992.09
2017-09-14T06:52:38.543Z,992.08
2017-09-14T06:53:38.511Z,992.21
2017-09-14T06:54:38.480Z,992.26
2017-09-14T06:55:38.446Z,992.30
2017-09-14T06:56:38.414Z,992.33
2017-09-14T06:57:38.385Z,992.30
2017-09-14T06:58:38.350Z,992.29
2017-09-14T06:59:38.317Z,992.21
2017-09-14T07:00:38.285Z,992.11
2017-09-14T07:01:38.253Z,992.20
2017-09-14T07:02:38.220Z,992.22
2017-09-14T07:03:38.229Z,992.20
2017-09-14T07:04:38.159Z,992.18
2017-09-14T07:05:38.126Z,992.08
2017-09-14T07:06:38.092Z,992.04
2017-09-14T07:07:38.273Z,991.91
2017-09-14T07:08:38.029Z,991.90
2017-09-14T07:09:37.997Z,991.79
2017-09-14T07:10:37.972Z,991.85
2017-09-14T07:11:37.932Z,991.91
2017-09-14T07:12:38.430Z,991.99
2017-09-14T07:13:37.871Z,992.04
2017-09-14T07:14:37.835Z,992.09
2017-09-14T07:15:37.803Z,992.21
2017-09-14T07:16:37.772Z,992.26
2017-09-14T07:17:37.740Z,992.37
2017-09-14T07:18:37.707Z,992.41
2017-09-14T07:19:37.690Z,992.60
2017-09-14T07:20:37.649Z,992.65
2017-09-14T07:21:37.611Z,992.52
2017-09-14T07:22:37.580Z,992.67
2017-09-14T07:23:37.552Z,992.67
2017-09-14T07:24:37.508Z,992.49
2017-09-14T07:25:37.482Z,992.42
2017-09-14T07:26:37.449Z,992.62
2017-09-14T07:27:37.417Z,992.59
2017-09-14T07:28:37.388Z,992.55
2017-09-14T07:29:37.354Z,992.56
2017-09-14T07:30:37.321Z,992.68
2017-09-14T07:31:37.292Z,992.64
2017-09-14T07:32:37.257Z,992.63
2017-09-14T07:33:37.225Z,992.70
2017-09-14T07:34:37.194Z,992.69
2017-09-14T07:35:37.161Z,992.58
2017-09-14T07:36:37.129Z,992.59
2017-09-14T07:37:37.099Z,992.67
2017-09-14T07:38:37.064Z,992.77
2017-09-14T07:39:37.032Z,992.60
2017-09-14T07:40:37.003Z,992.78
2017-09-14T07:41:36.969Z,992.85
2017-09-14T07:42:36.938Z,992.79
2017-09-14T07:43:36.906Z,992.91
2017-09-14T07:44:36.875Z,992.96
2017-09-14T07:45:36.853Z,993.05
2017-09-14T07:46:36.811Z,993.06
2017-09-14T07:47:36.778Z,992.97
2017-09-14T07:48:36.748Z,992.97
2017-09-14T07:49:36.715Z,993.07
2017-09-14T07:50:36.685Z,993.04
2017-09-14T07:51:36.656Z,993.14
2017-09-14T07:52:36.622Z,992.97
2017-09-14T07:53:36.590Z,992.97
2017-09-14T07:54:36.558Z,993.08
2017-09-14T07:55:36.525Z,993.05
2017-09-14T07:56:36.808Z,993.24
2017-09-14T07:57:36.464Z,993.06
2017-09-14T07:58:36.432Z,993.00
2017-09-14T07:59:36.399Z,992.94
2017-09-14T08:00:36.370Z,992.70
2017-09-14T08:01:36.337Z,992.85
2017-09-14T08:02:36.305Z,993.01
2017-09-14T08:03:36.277Z,993.20
2017-09-14T08:04:36.244Z,993.12
2017-09-14T08:05:36.213Z,993.08
2017-09-14T08:06:36.183Z,993.15
2017-09-14T08:07:36.150Z,993.15
2017-09-14T08:08:36.121Z,993.19
2017-09-14T08:09:36.086Z,992.91
2017-09-14T08:10:36.058Z,993.04
2017-09-14T08:11:36.026Z,993.07
2017-09-14T08:12:35.994Z,993.11
2017-09-14T08:13:35.963Z,993.22
2017-09-14T08:14:35.934Z,993.10
2017-09-14T08:15:35.903Z,993.20
2017-09-14T08:16:35.872Z,993.00
2017-09-14T08:17:35.842Z,993.15
2017-09-14T08:18:35.811Z,993.03
2017-09-14T08:19:35.781Z,993.21
2017-09-14T08:20:35.749Z,993.13
2017-09-14T08:21:35.720Z,993.31
2017-09-14T08:22:35.690Z,993.34
2017-09-14T08:23:35.658Z,993.42
2017-09-14T08:24:35.630Z,993.55
2017-09-14T08:25:35.599Z,993.28
2017-09-14T08:26:35.567Z,993.51
2017-09-14T08:27:35.537Z,993.53
2017-09-14T08:28:35.506Z,993.15
2017-09-14T08:29:35.484Z,993.37
2017-09-14T08:30:35.450Z,993.51
2017-09-14T08:31:35.418Z,993.72
2017-09-14T08:32:35.387Z,993.35
2017-09-14T08:33:35.363Z,993.35
2017-09-14T08:34:35.329Z,993.41
2017-09-14T08:35:35.301Z,993.62
2017-09-14T08:36:35.270Z,993.67
2017-09-14T08:37:35.243Z,993.74
2017-09-14T08:38:35.211Z,993.89
2017-09-14T08:39:35.183Z,993.85
2017-09-14T08:40:35.153Z,994.26
2017-09-14T08:41:35.125Z,994.01
2017-09-14T08:42:35.094Z,994.05
2017-09-14T08:43:35.065Z,993.71
2017-09-14T08:44:35.040Z,993.78
2017-09-14T08:45:35.010Z,993.76
2017-09-14T08:46:34.983Z,993.41
2017-09-14T08:47:34.955Z,993.66
2017-09-14T08:48:34.923Z,993.16
2017-09-14T08:49:34.895Z,993.70
2017-09-14T08:50:34.864Z,993.65
2017-09-14T08:51:35.268Z,993.75
2017-09-14T08:52:34.858Z,993.85
2017-09-14T08:53:34.777Z,993.84
2017-09-14T08:54:34.749Z,993.82
2017-09-14T08:55:34.718Z,993.75
2017-09-14T08:56:34.689Z,993.90
2017-09-14T08:57:34.659Z,994.00
2017-09-14T08:58:34.628Z,993.88
2017-09-14T08:59:34.600Z,994.23
2017-09-14T09:00:34.569Z,994.10
2017-09-14T09:01:34.541Z,993.96
2017-09-14T09:02:34.508Z,993.70
2017-09-14T09:03:34.482Z,994.67
2017-09-14T09:04:34.452Z,994.62
2017-09-14T09:05:34.426Z,994.20
2017-09-14T09:06:34.398Z,994.10
2017-09-14T09:07:34.366Z,994.31
2017-09-14T09:08:34.338Z,994.29
2017-09-14T09:09:34.313Z,993.93
2017-09-14T09:10:34.285Z,994.20
2017-09-14T09:11:34.259Z,994.00
2017-09-14T09:12:34.234Z,994.01
2017-09-14T09:13:34.206Z,994.11
2017-09-14T09:14:34.181Z,994.09
2017-09-14T09:15:34.154Z,993.82
2017-09-14T09:16:34.127Z,993.79
2017-09-14T09:17:34.097Z,994.02
2017-09-14T09:18:34.073Z,993.92
2017-09-14T09:19:34.046Z,993.81
2017-09-14T09:20:34.017Z,994.00
2017-09-14T09:21:33.990Z,993.94
2017-09-14T09:22:33.962Z,994.35
2017-09-14T09:23:33.935Z,994.22
2017-09-14T09:24:33.904Z,993.98
2017-09-14T09:25:33.879Z,994.36
2017-09-14T09:26:33.851Z,993.88
2017-09-14T09:27:33.823Z,994.15
2017-09-14T09:28:33.798Z,994.42
2017-09-14T09:29:33.770Z,994.28
2017-09-14T09:30:33.741Z,994.08
2017-09-14T09:31:33.714Z,993.95
2017-09-14T09:32:33.688Z,994.22
2017-09-14T09:33:33.734Z,994.62
2017-09-14T09:34:33.633Z,994.11
2017-09-14T09:35:33.608Z,994.08
2017-09-14T09:36:33.581Z,994.59
2017-09-14T09:37:33.553Z,994.66
2017-09-14T09:38:33.532Z,994.86
2017-09-14T09:39:33.507Z,994.36
2017-09-14T09:40:33.480Z,994.33
2017-09-14T09:41:33.453Z,994.49
2017-09-14T09:42:33.430Z,994.21
2017-09-14T09:43:33.404Z,994.19
2017-09-14T09:44:33.380Z,994.42
2017-09-14T09:45:33.355Z,994.39
2017-09-14T09:46:33.330Z,994.52
2017-09-14T09:47:33.307Z,994.27
2017-09-14T09:48:33.283Z,994.11
2017-09-14T09:49:33.260Z,993.89
2017-09-14T09:50:33.234Z,994.58
2017-09-14T09:51:33.212Z,994.34
2017-09-14T09:52:33.188Z,994.06
2017-09-14T09:53:33.166Z,994.48
2017-09-14T09:54:33.138Z,994.42
2017-09-14T09:55:33.118Z,994.87
2017-09-14T09:56:33.093Z,994.79
2017-09-14T09:57:33.070Z,994.84
2017-09-14T09:58:33.044Z,994.43
2017-09-14T09:59:33.022Z,994.74
2017-09-14T10:00:33.000Z,994.31
2017-09-14T10:01:32.977Z,994.49
2017-09-14T10:02:32.953Z,994.34
2017-09-14T10:03:32.930Z,994.21
2017-09-14T10:04:32.904Z,994.18
2017-09-14T10:05:32.884Z,994.42
2017-09-14T10:06:32.851Z,994.90
2017-09-14T10:07:32.834Z,994.39
2017-09-14T10:08:32.810Z,994.40
2017-09-14T10:09:32.787Z,994.54
2017-09-14T10:10:32.761Z,994.47
2017-09-14T10:11:32.740Z,994.79
2017-09-14T10:12:32.724Z,994.65
2017-09-14T10:13:32.689Z,994.74
2017-09-14T10:14:32.667Z,995.08
2017-09-14T10:15:32.651Z,995.01
2017-09-14T10:16:32.622Z,994.85
2017-09-14T10:17:32.843Z,994.74
2017-09-14T10:18:32.576Z,994.93
2017-09-14T10:19:32.553Z,994.35
2017-09-14T10:20:32.532Z,994.75
2017-09-14T10:21:32.512Z,995.12
2017-09-14T10:22:32.489Z,994.51
2017-09-14T10:23:32.466Z,994.52
2017-09-14T10:24:32.443Z,994.41
2017-09-14T10:25:32.423Z,995.00
2017-09-14T10:26:32.399Z,993.94
2017-09-14T10:27:32.418Z,994.19
2017-09-14T10:28:32.353Z,994.38
2017-09-14T10:29:32.329Z,994.19
2017-09-14T10:30:32.304Z,994.25
2017-09-14T10:31:32.280Z,994.67
2017-09-14T10:32:32.256Z,994.54
2017-09-14T10:33:32.228Z,994.68
2017-09-14T10:34:32.203Z,994.70
2017-09-14T10:35:32.178Z,994.81
2017-09-14T10:36:32.152Z,994.80
2017-09-14T10:37:32.126Z,994.81
2017-09-14T10:38:32.099Z,994.89
2017-09-14T10:39:32.072Z,995.05
2017-09-14T10:40:32.047Z,995.47
2017-09-14T10:41:32.020Z,995.43
2017-09-14T10:42:31.994Z,995.22
2017-09-14T10:43:31.970Z,995.06
2017-09-14T10:44:31.946Z,994.99
2017-09-14T10:45:31.924Z,995.18
2017-09-14T10:46:31.898Z,995.60
2017-09-14T10:47:31.874Z,995.55
2017-09-14T10:48:31.853Z,995.19
2017-09-14T10:49:31.961Z,995.37
2017-09-14T10:50:31.803Z,994.83
2017-09-14T10:51:31.784Z,994.99
2017-09-14T10:52:31.760Z,995.35
2017-09-14T10:53:31.740Z,994.73
2017-09-14T10:54:31.718Z,994.54
2017-09-14T10:55:31.693Z,994.77
2017-09-14T10:56:31.671Z,995.02
2017-09-14T10:57:31.646Z,995.14
2017-09-14T10:58:31.624Z,995.40
2017-09-14T10:59:31.600Z,995.17
2017-09-14T11:00:31.578Z,995.00
2017-09-14T11:01:31.557Z,994.92
2017-09-14T11:02:31.530Z,994.82
2017-09-14T11:03:31.505Z,994.70
2017-09-14T11:04:31.734Z,994.79
2017-09-14T11:05:31.734Z,994.80
2017-09-14T11:06:31.428Z,994.84
2017-09-14T11:07:31.405Z,995.00
2017-09-14T11:08:31.378Z,994.89
2017-09-14T11:09:31.352Z,995.06
2017-09-14T11:10:31.324Z,995.02
2017-09-14T11:11:31.298Z,994.90
2017-09-14T11:12:31.270Z,995.17
2017-09-14T11:13:31.245Z,995.27
2017-09-14T11:14:31.215Z,995.28
2017-09-14T11:15:31.189Z,995.14
2017-09-14T11:16:31.161Z,995.36
2017-09-14T11:17:31.134Z,995.32
2017-09-14T11:18:31.105Z,995.40
2017-09-14T11:19:31.076Z,995.36
2017-09-14T11:20:31.049Z,995.44
2017-09-14T11:21:31.023Z,995.57
2017-09-14T11:22:30.990Z,995.52
2017-09-14T11:23:31.200Z,995.50
2017-09-14T11:24:30.935Z,995.54
2017-09-14T11:25:30.906Z,995.49
2017-09-14T11:26:30.879Z,995.45
2017-09-14T11:27:30.852Z,995.45
2017-09-14T11:28:30.829Z,995.60
2017-09-14T11:29:30.793Z,995.55
2017-09-14T11:30:30.765Z,995.42
2017-09-14T11:31:30.738Z,995.48
2017-09-14T11:32:30.707Z,995.58
2017-09-14T11:33:30.683Z,996.03
2017-09-14T11:34:30.654Z,995.36
2017-09-14T11:35:30.669Z,995.74
2017-09-14T11:36:30.601Z,995.88
2017-09-14T11:37:30.572Z,995.58
2017-09-14T11:38:30.558Z,996.17
2017-09-14T11:39:30.521Z,995.73
2017-09-14T11:40:30.494Z,995.96
2017-09-14T11:41:30.468Z,995.65
2017-09-14T11:42:30.442Z,995.90
2017-09-14T11:43:30.428Z,995.92
2017-09-14T11:44:30.396Z,995.66
2017-09-14T11:45:30.373Z,995.79
2017-09-14T11:46:30.351Z,996.00
2017-09-14T11:47:30.329Z,995.64
2017-09-14T11:48:30.307Z,995.76
2017-09-14T11:49:30.287Z,996.00
2017-09-14T11:50:30.265Z,995.18
2017-09-14T11:51:30.244Z,995.50
2017-09-14T11:52:30.224Z,995.99
2017-09-14T11:53:30.204Z,996.01
2017-09-14T11:54:30.182Z,995.44
2017-09-14T11:55:30.157Z,995.66
2017-09-14T11:56:30.141Z,995.54
2017-09-14T11:57:30.122Z,995.50
2017-09-14T11:58:30.099Z,995.45
2017-09-14T11:59:30.078Z,995.51
2017-09-14T12:00:30.076Z,995.74
2017-09-14T12:01:30.036Z,995.38
2017-09-14T12:02:30.011Z,996.06
2017-09-14T12:03:29.992Z,995.55
2017-09-14T12:04:29.970Z,995.85
2017-09-14T12:05:29.947Z,995.29
2017-09-14T12:06:29.923Z,995.45
2017-09-14T12:07:29.900Z,996.05
2017-09-14T12:08:29.877Z,995.63
2017-09-14T12:09:29.859Z,995.23
2017-09-14T12:10:29.832Z,995.57
2017-09-14T12:11:29.808Z,995.49
2017-09-14T12:12:29.790Z,995.41
2017-09-14T12:13:29.759Z,995.13
2017-09-14T12:14:29.734Z,994.37
2017-09-14T12:15:29.708Z,995.58
2017-09-14T12:16:29.682Z,995.61
2017-09-14T12:17:29.656Z,995.72
2017-09-14T12:18:29.630Z,995.69
2017-09-14T12:19:29.601Z,995.53
2017-09-14T12:20:29.573Z,995.61
2017-09-14T12:21:29.546Z,995.63
2017-09-14T12:22:29.519Z,995.38
2017-09-14T12:23:29.491Z,995.65
2017-09-14T12:24:29.463Z,995.78
2017-09-14T12:25:29.440Z,995.91
2017-09-14T12:26:29.405Z,995.97
2017-09-14T12:27:29.371Z,996.10
2017-09-14T12:28:29.350Z,995.90